Sanford, ME

11:58 AM EST on February 14, 2016 (GMT -0500)
APRSWXNET | | Change Station
CLOSE
Current Station
Personal Weather Station
Location: Springvale, ME
Elevation: 600 ft
Nearby Weather Stations

Elev 600 ft 43.46 °N, 70.82 °W | Updated 37 minutes ago

Clear
Clear
3 °F
Feels Like -5 °F
N
4
Wind Variable Wind from West
Gusts 12.0 mph

Today
High -- | Low -- °F
--% Chance of Precip.
Yesterday
High -- | Low -- °F
Precip. -- in
Pressure 30.29 in
Visibility 10.0 miles
Clouds Clear
Windchill -5 °F
Dew Point -13 °F
Humidity 45%
Rainfall in
Snow Depth Not available.
6:43 AM 5:11 PM
Waxing Crescent, 43% visible
METAR KSFM 141655Z AUTO 27012G18KT 10SM CLR M15/M26 A3029 RMK AO1
Pressure 30.29 in
Visibility 10.0 miles
Clouds Clear
Windchill -5 °F
Dew Point -13 °F
Humidity 45%
Rainfall in
Snow Depth Not available.
6:43 AM 5:11 PM
Waxing Crescent, 43% visible
METAR KSFM 141655Z AUTO 27012G18KT 10SM CLR M15/M26 A3029 RMK AO1

10-Day Weather Forecast

Almanac

Astronomy

Feb. 14, 2016 Rise Set
Actual Time
Civil Twilight
Nautical Twilight
Astronomical Twilight
Moon
Length of Visible Light
Length of Day
Tomorrow will be .
, % of the Moon is Illuminated

Today's Extremes

State Highs State Lows

Community

WunderPhotos

Upload Photos

1,892,837 photos uploaded!

WunderBlog® & News

Nearby

Air Quality

  Air Quality AQ Index Pollutant
Not available.

Snow Depth

Station Depth Elevation

Earthquake Activity

City Distance Mag. Time & Date
Minimum magnitude displayed is 2.5.

Coastal Water Temperatures

Place Temperature

Stations

Nearby Weather Stations

Station Location Temp. Windchill Dew Point Humidity Wind Precip. Elev Updated Type
                   

Watches & Warnings

There are currently no watches in effect.